createdAt,value
2019-02-10T00:02:27.899Z,84
2019-02-10T00:07:27.869Z,83.5
2019-02-10T00:12:27.744Z,83.5
2019-02-10T00:17:27.891Z,83.2
2019-02-10T00:22:27.962Z,83.4
2019-02-10T00:27:27.876Z,83.7
2019-02-10T00:32:28.000Z,82.8
2019-02-10T00:37:27.935Z,84.2
2019-02-10T00:42:27.771Z,83.7
2019-02-10T00:47:28.002Z,84.5
2019-02-10T00:52:27.773Z,84.2
2019-02-10T00:57:27.778Z,83.7
2019-02-10T01:02:27.773Z,84.8
2019-02-10T01:07:27.940Z,85
2019-02-10T01:12:27.783Z,85.5
2019-02-10T01:17:27.803Z,86.5
2019-02-10T01:22:27.768Z,85.1
2019-02-10T01:27:27.974Z,84.8
2019-02-10T01:32:28.013Z,85
2019-02-10T01:37:27.795Z,84.4
2019-02-10T01:42:27.872Z,84.7
2019-02-10T01:47:27.841Z,83.6
2019-02-10T01:52:27.923Z,84.5
2019-02-10T01:57:27.795Z,84
2019-02-10T02:02:27.796Z,84.5
2019-02-10T02:07:28.037Z,84.3
2019-02-10T02:12:27.827Z,84.6
2019-02-10T02:17:27.816Z,85.1
2019-02-10T02:22:28.038Z,84.8
2019-02-10T02:27:27.954Z,85.3
2019-02-10T02:32:28.022Z,84.9
2019-02-10T02:37:27.829Z,84.5
2019-02-10T02:42:27.819Z,84.8
2019-02-10T02:47:27.840Z,85.2
2019-02-10T02:52:28.047Z,85
2019-02-10T02:57:27.828Z,85
2019-02-10T03:02:27.847Z,86
2019-02-10T03:07:28.051Z,85.1
2019-02-10T03:12:28.006Z,85.2
2019-02-10T03:17:28.015Z,85.6
2019-02-10T03:22:28.083Z,85.2
2019-02-10T03:27:28.106Z,85.5
2019-02-10T03:32:27.855Z,85.1
2019-02-10T03:37:28.063Z,85.4
2019-02-10T03:42:27.871Z,85.8
2019-02-10T03:47:28.011Z,85.5
2019-02-10T03:52:28.046Z,85.7
2019-02-10T03:57:28.046Z,85.3
2019-02-10T04:02:28.018Z,85.4
2019-02-10T04:07:36.638Z,85.9
2019-02-10T04:12:27.859Z,85.8
2019-02-10T04:17:28.016Z,85.3
2019-02-10T04:22:28.042Z,85.3
2019-02-10T04:27:27.897Z,85.8
2019-02-10T04:32:27.883Z,86.1
2019-02-10T04:37:27.906Z,86.3
2019-02-10T04:42:27.896Z,88.3
2019-02-10T04:47:28.138Z,87.9
2019-02-10T04:52:27.889Z,87.1
2019-02-10T04:57:27.907Z,87.3
2019-02-10T05:02:28.130Z,87.5
2019-02-10T05:07:28.058Z,87.5
2019-02-10T05:12:27.900Z,87.4
2019-02-10T05:17:27.922Z,87.1
2019-02-10T05:22:28.040Z,87.2
2019-02-10T05:27:27.914Z,87.7
2019-02-10T05:32:28.119Z,88.2
2019-02-10T05:37:28.053Z,87.7
2019-02-10T05:42:27.945Z,88
2019-02-10T05:47:28.136Z,87.8
2019-02-10T05:52:27.936Z,87.1
2019-02-10T05:57:28.088Z,88.2
2019-02-10T06:02:28.123Z,87.6
2019-02-10T06:07:28.174Z,87.6
2019-02-10T06:12:28.093Z,87.8
2019-02-10T06:17:27.960Z,87.6
2019-02-10T06:22:28.156Z,87.7
2019-02-10T06:27:28.195Z,87.7
2019-02-10T06:32:27.923Z,88
2019-02-10T06:37:27.961Z,87.9
2019-02-10T06:42:27.981Z,87.8
2019-02-10T06:47:27.993Z,88
2019-02-10T06:52:27.983Z,87.8
2019-02-10T06:57:27.964Z,88.3
2019-02-10T07:02:27.998Z,89
2019-02-10T07:07:27.991Z,90
2019-02-10T07:12:28.023Z,89.5
2019-02-10T07:17:27.968Z,89.7
2019-02-10T07:22:27.985Z,88.8
2019-02-10T07:27:28.227Z,89.1
2019-02-10T07:32:27.978Z,88.7
2019-02-10T07:37:27.998Z,89.5
2019-02-10T07:42:28.029Z,89.3
2019-02-10T07:47:28.010Z,89.6
2019-02-10T07:52:28.010Z,88.7
2019-02-10T07:57:28.001Z,88.1
2019-02-10T08:02:28.059Z,88.8
2019-02-10T08:07:27.986Z,88.1
2019-02-10T08:12:28.057Z,88
2019-02-10T08:17:28.156Z,87.7
2019-02-10T08:22:28.045Z,86.6
2019-02-10T08:27:28.214Z,85.4
2019-02-10T08:32:28.442Z,87
2019-02-10T08:37:28.045Z,86.6
2019-02-10T08:42:28.017Z,85.5
2019-02-10T08:47:34.042Z,84.6
2019-02-10T08:52:28.062Z,86.5
2019-02-10T08:57:28.005Z,85.7
2019-02-10T09:02:28.511Z,84.1
2019-02-10T09:07:28.086Z,83.3
2019-02-10T09:12:28.056Z,84.1
2019-02-10T09:17:28.059Z,84.1
2019-02-10T09:22:28.070Z,81.2
2019-02-10T09:27:28.066Z,82.2
2019-02-10T09:32:28.468Z,80.5
2019-02-10T09:37:28.077Z,80.1
2019-02-10T09:42:28.053Z,81.5
2019-02-10T09:47:29.818Z,79
2019-02-10T09:52:29.771Z,77.7
2019-02-10T09:57:28.086Z,76.9
2019-02-10T10:02:28.155Z,76.6
2019-02-10T10:07:28.033Z,74.2
2019-02-10T10:12:28.212Z,69.7
2019-02-10T10:17:28.088Z,69.7
2019-02-10T10:22:28.472Z,69.6
2019-02-10T10:27:28.141Z,70.9
2019-02-10T10:32:28.094Z,70.1
2019-02-10T10:37:28.184Z,69.5
2019-02-10T10:42:28.082Z,68.4
2019-02-10T10:47:28.135Z,68.8
2019-02-10T10:52:28.105Z,69.9
2019-02-10T10:57:28.118Z,68.1
2019-02-10T11:02:28.158Z,68.6
2019-02-10T11:07:28.107Z,64.8
2019-02-10T11:12:28.128Z,64.8
2019-02-10T11:17:28.113Z,64.6
2019-02-10T11:22:28.278Z,64.9
2019-02-10T11:27:28.112Z,63.5
2019-02-10T11:32:28.149Z,63.5
2019-02-10T11:37:28.132Z,63.7
2019-02-10T11:42:28.133Z,64.6
2019-02-10T11:47:28.134Z,63.3
2019-02-10T11:52:28.282Z,62.5
2019-02-10T11:57:28.187Z,64
2019-02-10T12:02:28.137Z,63.3
2019-02-10T12:07:28.131Z,63
2019-02-10T12:12:28.163Z,63.3
2019-02-10T12:17:28.269Z,63.4
2019-02-10T12:22:28.203Z,64.1
2019-02-10T12:27:28.172Z,62.5
2019-02-10T12:32:28.168Z,63.5
2019-02-10T12:37:32.876Z,62.8
2019-02-10T12:42:28.183Z,63.2
2019-02-10T12:47:28.177Z,63
2019-02-10T12:52:28.186Z,63.6
2019-02-10T12:57:28.201Z,63.7
2019-02-10T13:02:28.128Z,63.7
2019-02-10T13:07:28.183Z,64.2
2019-02-10T13:12:28.223Z,63.2
2019-02-10T13:17:28.196Z,64.2
2019-02-10T13:22:28.201Z,64.2
2019-02-10T13:27:28.209Z,63.9
2019-02-10T13:32:28.200Z,63.5
2019-02-10T13:37:28.188Z,62.9
2019-02-10T13:42:28.192Z,63.7
2019-02-10T13:47:28.366Z,64.8
2019-02-10T13:52:28.229Z,65.5
2019-02-10T13:57:28.176Z,65.7
2019-02-10T14:02:28.228Z,64.6
2019-02-10T14:07:28.203Z,66.5
2019-02-10T14:12:28.203Z,65.5
2019-02-10T14:17:28.235Z,65.5
2019-02-10T14:22:28.212Z,66.1
2019-02-10T14:27:28.233Z,66.8
2019-02-10T14:32:28.219Z,66.9
2019-02-10T14:37:28.218Z,67.1
2019-02-10T14:42:28.274Z,67.5
2019-02-10T14:47:28.225Z,66.8
2019-02-10T14:52:28.247Z,66.8
2019-02-10T14:57:28.469Z,67.7
2019-02-10T15:02:28.367Z,66.9
2019-02-10T15:07:28.274Z,67.7
2019-02-10T15:12:28.394Z,68.7
2019-02-10T15:17:30.095Z,69.3
2019-02-10T15:22:28.255Z,70.3
2019-02-10T15:27:28.336Z,70.9
2019-02-10T15:32:28.460Z,71.2
2019-02-10T15:37:28.499Z,71.1
2019-02-10T15:42:28.585Z,71.8
2019-02-10T15:47:28.514Z,72.6
2019-02-10T15:52:28.439Z,72.6
2019-02-10T15:57:28.274Z,74.2
2019-02-10T16:02:28.500Z,74.8
2019-02-10T16:07:28.484Z,75
2019-02-10T16:12:28.466Z,75.7
2019-02-10T16:17:28.315Z,76.5
2019-02-10T16:22:28.543Z,76.6
2019-02-10T16:27:28.560Z,76.6
2019-02-10T16:32:28.336Z,77.3
2019-02-10T16:37:28.292Z,77.3
2019-02-10T16:42:28.364Z,78.2
2019-02-10T16:47:28.421Z,78.5
2019-02-10T16:52:28.352Z,78.8
2019-02-10T16:57:28.437Z,78.9
2019-02-10T17:02:29.311Z,79
2019-02-10T17:07:29.435Z,79.1
2019-02-10T17:12:29.111Z,79.6
2019-02-10T17:17:29.248Z,79.4
2019-02-10T17:22:29.294Z,79.2
2019-02-10T17:27:29.200Z,80.4
2019-02-10T17:32:29.927Z,79.9
2019-02-10T17:37:28.739Z,81
2019-02-10T17:42:30.190Z,80.3
2019-02-10T17:47:29.816Z,80.3
2019-02-10T17:52:32.718Z,81.2
2019-02-10T17:57:29.654Z,80.9
2019-02-10T18:02:29.290Z,81.5
2019-02-10T18:07:29.489Z,80.2
2019-02-10T18:12:32.468Z,80.1
2019-02-10T18:17:29.923Z,81.3
2019-02-10T18:22:29.117Z,81.6
2019-02-10T18:27:28.738Z,80.9
2019-02-10T18:32:30.187Z,82
2019-02-10T18:37:29.262Z,82.8
2019-02-10T18:42:29.989Z,81.9
2019-02-10T18:47:29.424Z,82.5
2019-02-10T18:52:29.315Z,82.2
2019-02-10T18:57:29.571Z,82.3
2019-02-10T19:02:29.955Z,83.4
2019-02-10T19:07:29.354Z,83
2019-02-10T19:12:28.914Z,83.7
2019-02-10T19:17:32.408Z,83
2019-02-10T19:22:29.965Z,84
2019-02-10T19:27:29.587Z,84.8
2019-02-10T19:32:29.610Z,83.9
2019-02-10T19:37:30.129Z,84.5
2019-02-10T19:42:28.808Z,83.3
2019-02-10T19:47:29.787Z,84.8
2019-02-10T19:52:29.984Z,84
2019-02-10T19:57:30.086Z,84.8
2019-02-10T20:02:29.943Z,84.5
2019-02-10T20:07:29.823Z,85
2019-02-10T20:12:30.009Z,85.8
2019-02-10T20:17:29.356Z,85.5
2019-02-10T20:22:32.101Z,88.9
2019-02-10T20:27:30.041Z,91
2019-02-10T20:32:30.112Z,91
2019-02-10T20:37:30.377Z,91.3
2019-02-10T20:42:29.433Z,91.2
2019-02-10T20:47:29.645Z,90.6
2019-02-10T20:52:30.381Z,90
2019-02-10T20:57:29.499Z,90
2019-02-10T21:02:29.230Z,89.3
2019-02-10T21:07:29.894Z,88.1
2019-02-10T21:12:32.561Z,87.9
2019-02-10T21:17:29.839Z,89.2
2019-02-10T21:22:29.875Z,87.8
2019-02-10T21:27:29.666Z,88.5
2019-02-10T21:32:30.049Z,87.5
2019-02-10T21:37:28.484Z,87.5
2019-02-10T21:42:29.483Z,87.8
2019-02-10T21:47:28.510Z,87.6
2019-02-10T21:52:28.605Z,85.9
2019-02-10T21:57:28.587Z,84.6
2019-02-10T22:02:28.583Z,84.8
2019-02-10T22:07:28.470Z,83.9
2019-02-10T22:12:28.463Z,82.6
2019-02-10T22:17:28.502Z,81.1
2019-02-10T22:22:28.492Z,80.5
2019-02-10T22:27:28.480Z,79
2019-02-10T22:32:28.489Z,79.1
2019-02-10T22:37:28.471Z,77.7
2019-02-10T22:42:28.484Z,77.8
2019-02-10T22:47:28.553Z,76.2
2019-02-10T22:52:28.664Z,76.6
2019-02-10T22:57:28.692Z,75.5
2019-02-10T23:02:28.510Z,76.1
2019-02-10T23:07:29.351Z,76.8
2019-02-10T23:12:28.498Z,76
2019-02-10T23:17:28.491Z,76.9
2019-02-10T23:22:28.512Z,76
2019-02-10T23:27:28.485Z,76
2019-02-10T23:32:28.516Z,76.1
2019-02-10T23:37:28.512Z,76.5
2019-02-10T23:42:28.499Z,75.8
2019-02-10T23:47:28.495Z,75.9
2019-02-10T23:52:28.630Z,75.9
2019-02-10T23:57:28.473Z,76
